sensor_id;sensor_type;location;lat;lon;timestamp;P1;durP1;ratioP1;P2;durP2;ratioP2
3677;SDS011;1855;50.934;6.958;2023-11-18T00:00:46;68.90;;;26.73;;
3677;SDS011;1855;50.934;6.958;2023-11-18T00:03:13;82.47;;;29.38;;
3677;SDS011;1855;50.934;6.958;2023-11-18T00:05:40;109.20;;;32.00;;
3677;SDS011;1855;50.934;6.958;2023-11-18T00:08:06;66.90;;;28.70;;
3677;SDS011;1855;50.934;6.958;2023-11-18T00:10:33;103.97;;;32.47;;
3677;SDS011;1855;50.934;6.958;2023-11-18T00:13:00;106.20;;;32.97;;
3677;SDS011;1855;50.934;6.958;2023-11-18T00:15:30;90.75;;;31.58;;
3677;SDS011;1855;50.934;6.958;2023-11-18T00:17:59;105.13;;;33.45;;
3677;SDS011;1855;50.934;6.958;2023-11-18T00:20:25;89.80;;;33.43;;
3677;SDS011;1855;50.934;6.958;2023-11-18T00:22:52;96.95;;;32.85;;
3677;SDS011;1855;50.934;6.958;2023-11-18T00:25:20;87.53;;;34.03;;
3677;SDS011;1855;50.934;6.958;2023-11-18T00:27:47;77.50;;;31.67;;
3677;SDS011;1855;50.934;6.958;2023-11-18T00:30:14;95.40;;;34.03;;
3677;SDS011;1855;50.934;6.958;2023-11-18T00:32:42;89.03;;;32.38;;
3677;SDS011;1855;50.934;6.958;2023-11-18T00:35:09;66.43;;;30.30;;
3677;SDS011;1855;50.934;6.958;2023-11-18T00:37:36;67.65;;;29.77;;
3677;SDS011;1855;50.934;6.958;2023-11-18T00:40:03;63.17;;;29.10;;
3677;SDS011;1855;50.934;6.958;2023-11-18T00:42:31;67.38;;;28.85;;
3677;SDS011;1855;50.934;6.958;2023-11-18T00:44:58;70.13;;;27.37;;
3677;SDS011;1855;50.934;6.958;2023-11-18T00:47:25;54.35;;;26.38;;
3677;SDS011;1855;50.934;6.958;2023-11-18T00:49:53;58.50;;;28.52;;
3677;SDS011;1855;50.934;6.958;2023-11-18T00:52:20;58.83;;;27.70;;
3677;SDS011;1855;50.934;6.958;2023-11-18T00:54:46;59.22;;;27.98;;
3677;SDS011;1855;50.934;6.958;2023-11-18T00:57:13;58.92;;;26.70;;
3677;SDS011;1855;50.934;6.958;2023-11-18T00:59:43;56.77;;;27.57;;
3677;SDS011;1855;50.934;6.958;2023-11-18T01:02:10;58.10;;;26.75;;
3677;SDS011;1855;50.934;6.958;2023-11-18T01:04:38;57.83;;;26.88;;
3677;SDS011;1855;50.934;6.958;2023-11-18T01:07:06;60.65;;;28.80;;
3677;SDS011;1855;50.934;6.958;2023-11-18T01:09:33;49.63;;;26.05;;
3677;SDS011;1855;50.934;6.958;2023-11-18T01:12:05;50.90;;;25.83;;
3677;SDS011;1855;50.934;6.958;2023-11-18T01:14:34;52.10;;;26.58;;
3677;SDS011;1855;50.934;6.958;2023-11-18T01:17:02;54.33;;;25.73;;
3677;SDS011;1855;50.934;6.958;2023-11-18T01:19:29;53.65;;;26.77;;
3677;SDS011;1855;50.934;6.958;2023-11-18T01:21:56;53.05;;;28.08;;
3677;SDS011;1855;50.934;6.958;2023-11-18T01:24:24;52.92;;;28.50;;
3677;SDS011;1855;50.934;6.958;2023-11-18T01:26:51;51.90;;;27.10;;
3677;SDS011;1855;50.934;6.958;2023-11-18T01:29:18;48.88;;;26.83;;
3677;SDS011;1855;50.934;6.958;2023-11-18T01:31:46;51.37;;;28.50;;
3677;SDS011;1855;50.934;6.958;2023-11-18T01:34:12;49.38;;;27.02;;
3677;SDS011;1855;50.934;6.958;2023-11-18T01:36:39;55.80;;;29.33;;
3677;SDS011;1855;50.934;6.958;2023-11-18T01:39:08;48.42;;;27.73;;
3677;SDS011;1855;50.934;6.958;2023-11-18T01:41:36;50.63;;;28.02;;
3677;SDS011;1855;50.934;6.958;2023-11-18T01:44:03;48.13;;;25.03;;
3677;SDS011;1855;50.934;6.958;2023-11-18T01:46:30;50.85;;;27.60;;
3677;SDS011;1855;50.934;6.958;2023-11-18T01:48:57;47.00;;;24.55;;
3677;SDS011;1855;50.934;6.958;2023-11-18T01:51:24;46.85;;;25.38;;
3677;SDS011;1855;50.934;6.958;2023-11-18T01:53:51;47.33;;;24.17;;
3677;SDS011;1855;50.934;6.958;2023-11-18T01:56:18;42.60;;;24.85;;
3677;SDS011;1855;50.934;6.958;2023-11-18T01:58:47;48.03;;;24.77;;
3677;SDS011;1855;50.934;6.958;2023-11-18T02:01:15;45.45;;;26.02;;
3677;SDS011;1855;50.934;6.958;2023-11-18T02:03:42;43.90;;;25.88;;
3677;SDS011;1855;50.934;6.958;2023-11-18T02:06:10;39.40;;;23.38;;
3677;SDS011;1855;50.934;6.958;2023-11-18T02:08:37;41.78;;;24.38;;
3677;SDS011;1855;50.934;6.958;2023-11-18T02:11:05;40.97;;;24.17;;
3677;SDS011;1855;50.934;6.958;2023-11-18T02:13:44;38.90;;;23.45;;
3677;SDS011;1855;50.934;6.958;2023-11-18T02:16:16;41.67;;;23.75;;
3677;SDS011;1855;50.934;6.958;2023-11-18T02:18:44;42.03;;;24.55;;
3677;SDS011;1855;50.934;6.958;2023-11-18T02:21:14;37.60;;;24.35;;
3677;SDS011;1855;50.934;6.958;2023-11-18T02:23:41;36.33;;;23.92;;
3677;SDS011;1855;50.934;6.958;2023-11-18T02:26:09;37.43;;;23.50;;
3677;SDS011;1855;50.934;6.958;2023-11-18T02:28:36;40.50;;;24.08;;
3677;SDS011;1855;50.934;6.958;2023-11-18T02:31:04;39.97;;;23.02;;
3677;SDS011;1855;50.934;6.958;2023-11-18T02:33:42;43.40;;;26.45;;
3677;SDS011;1855;50.934;6.958;2023-11-18T02:36:18;41.65;;;24.17;;
3677;SDS011;1855;50.934;6.958;2023-11-18T02:38:50;39.85;;;24.33;;
3677;SDS011;1855;50.934;6.958;2023-11-18T02:41:21;37.35;;;23.45;;
3677;SDS011;1855;50.934;6.958;2023-11-18T02:43:49;38.40;;;22.43;;
3677;SDS011;1855;50.934;6.958;2023-11-18T02:46:16;36.65;;;23.15;;
3677;SDS011;1855;50.934;6.958;2023-11-18T02:48:44;37.80;;;23.63;;
3677;SDS011;1855;50.934;6.958;2023-11-18T02:51:11;39.83;;;23.52;;
3677;SDS011;1855;50.934;6.958;2023-11-18T02:53:38;38.03;;;22.50;;
3677;SDS011;1855;50.934;6.958;2023-11-18T02:56:06;38.10;;;23.23;;
3677;SDS011;1855;50.934;6.958;2023-11-18T02:58:35;37.20;;;22.30;;
3677;SDS011;1855;50.934;6.958;2023-11-18T03:01:02;36.00;;;21.60;;
3677;SDS011;1855;50.934;6.958;2023-11-18T03:03:30;37.38;;;22.50;;
3677;SDS011;1855;50.934;6.958;2023-11-18T03:05:56;39.35;;;22.58;;
3677;SDS011;1855;50.934;6.958;2023-11-18T03:08:25;38.15;;;22.80;;
3677;SDS011;1855;50.934;6.958;2023-11-18T03:10:53;35.63;;;21.50;;
3677;SDS011;1855;50.934;6.958;2023-11-18T03:13:20;38.25;;;23.00;;
3677;SDS011;1855;50.934;6.958;2023-11-18T03:15:49;33.17;;;21.73;;
3677;SDS011;1855;50.934;6.958;2023-11-18T03:18:16;35.87;;;22.37;;
3677;SDS011;1855;50.934;6.958;2023-11-18T03:20:43;34.58;;;21.10;;
3677;SDS011;1855;50.934;6.958;2023-11-18T03:23:10;33.80;;;21.15;;
3677;SDS011;1855;50.934;6.958;2023-11-18T03:25:37;35.20;;;21.70;;
3677;SDS011;1855;50.934;6.958;2023-11-18T03:28:04;34.33;;;21.45;;
3677;SDS011;1855;50.934;6.958;2023-11-18T03:30:32;34.38;;;21.42;;
3677;SDS011;1855;50.934;6.958;2023-11-18T03:33:01;37.22;;;21.70;;
3677;SDS011;1855;50.934;6.958;2023-11-18T03:35:28;30.08;;;20.17;;
3677;SDS011;1855;50.934;6.958;2023-11-18T03:37:56;32.92;;;20.55;;
3677;SDS011;1855;50.934;6.958;2023-11-18T03:40:23;28.10;;;19.20;;
3677;SDS011;1855;50.934;6.958;2023-11-18T03:42:50;29.85;;;19.83;;
3677;SDS011;1855;50.934;6.958;2023-11-18T03:45:18;30.92;;;18.65;;
3677;SDS011;1855;50.934;6.958;2023-11-18T03:47:46;32.45;;;19.70;;
3677;SDS011;1855;50.934;6.958;2023-11-18T03:50:16;28.30;;;19.00;;
3677;SDS011;1855;50.934;6.958;2023-11-18T03:52:43;29.38;;;19.25;;
3677;SDS011;1855;50.934;6.958;2023-11-18T03:55:10;30.80;;;19.15;;
3677;SDS011;1855;50.934;6.958;2023-11-18T03:57:37;27.65;;;18.08;;
3677;SDS011;1855;50.934;6.958;2023-11-18T04:00:04;26.52;;;19.30;;
3677;SDS011;1855;50.934;6.958;2023-11-18T04:02:32;25.80;;;18.60;;
3677;SDS011;1855;50.934;6.958;2023-11-18T04:05:00;29.63;;;18.80;;
3677;SDS011;1855;50.934;6.958;2023-11-18T04:07:29;30.75;;;19.80;;
3677;SDS011;1855;50.934;6.958;2023-11-18T04:09:56;32.63;;;20.77;;
3677;SDS011;1855;50.934;6.958;2023-11-18T04:12:24;30.67;;;20.17;;
3677;SDS011;1855;50.934;6.958;2023-11-18T04:14:51;29.80;;;18.35;;
3677;SDS011;1855;50.934;6.958;2023-11-18T04:17:18;27.80;;;18.48;;
3677;SDS011;1855;50.934;6.958;2023-11-18T04:19:45;29.20;;;18.47;;
3677;SDS011;1855;50.934;6.958;2023-11-18T04:22:12;29.73;;;19.58;;
3677;SDS011;1855;50.934;6.958;2023-11-18T04:24:40;30.55;;;20.23;;
3677;SDS011;1855;50.934;6.958;2023-11-18T04:27:07;30.70;;;20.90;;
3677;SDS011;1855;50.934;6.958;2023-11-18T04:29:33;33.25;;;20.83;;
3677;SDS011;1855;50.934;6.958;2023-11-18T04:32:02;33.50;;;20.87;;
3677;SDS011;1855;50.934;6.958;2023-11-18T04:34:29;34.90;;;21.90;;
3677;SDS011;1855;50.934;6.958;2023-11-18T04:36:57;33.15;;;21.27;;
3677;SDS011;1855;50.934;6.958;2023-11-18T04:39:25;33.53;;;21.40;;
3677;SDS011;1855;50.934;6.958;2023-11-18T04:41:54;36.30;;;22.07;;
3677;SDS011;1855;50.934;6.958;2023-11-18T04:44:21;34.47;;;20.77;;
3677;SDS011;1855;50.934;6.958;2023-11-18T04:46:48;31.35;;;21.13;;
3677;SDS011;1855;50.934;6.958;2023-11-18T04:49:15;33.53;;;20.55;;
3677;SDS011;1855;50.934;6.958;2023-11-18T04:51:42;30.23;;;19.33;;
3677;SDS011;1855;50.934;6.958;2023-11-18T04:54:08;33.15;;;22.33;;
3677;SDS011;1855;50.934;6.958;2023-11-18T04:56:35;31.50;;;20.40;;
3677;SDS011;1855;50.934;6.958;2023-11-18T04:59:04;30.90;;;20.20;;
3677;SDS011;1855;50.934;6.958;2023-11-18T05:01:31;34.43;;;20.77;;
3677;SDS011;1855;50.934;6.958;2023-11-18T05:03:57;35.53;;;21.92;;
3677;SDS011;1855;50.934;6.958;2023-11-18T05:06:25;34.08;;;21.80;;
3677;SDS011;1855;50.934;6.958;2023-11-18T05:08:52;33.63;;;22.38;;
3677;SDS011;1855;50.934;6.958;2023-11-18T05:11:19;33.10;;;20.35;;
3677;SDS011;1855;50.934;6.958;2023-11-18T05:13:46;35.78;;;22.08;;
3677;SDS011;1855;50.934;6.958;2023-11-18T05:16:14;31.55;;;21.08;;
3677;SDS011;1855;50.934;6.958;2023-11-18T05:18:41;31.53;;;20.37;;
3677;SDS011;1855;50.934;6.958;2023-11-18T05:21:07;33.45;;;20.23;;
3677;SDS011;1855;50.934;6.958;2023-11-18T05:23:36;32.50;;;20.30;;
3677;SDS011;1855;50.934;6.958;2023-11-18T05:26:02;32.55;;;20.63;;
3677;SDS011;1855;50.934;6.958;2023-11-18T05:28:30;32.85;;;21.15;;
3677;SDS011;1855;50.934;6.958;2023-11-18T05:30:57;32.53;;;21.08;;
3677;SDS011;1855;50.934;6.958;2023-11-18T05:33:28;33.58;;;21.00;;
3677;SDS011;1855;50.934;6.958;2023-11-18T05:35:55;37.53;;;21.60;;
3677;SDS011;1855;50.934;6.958;2023-11-18T05:38:22;32.40;;;20.98;;
3677;SDS011;1855;50.934;6.958;2023-11-18T05:40:52;29.67;;;19.60;;
3677;SDS011;1855;50.934;6.958;2023-11-18T05:43:22;31.95;;;20.00;;
3677;SDS011;1855;50.934;6.958;2023-11-18T05:45:52;33.45;;;20.75;;
3677;SDS011;1855;50.934;6.958;2023-11-18T05:48:41;31.45;;;19.88;;
3677;SDS011;1855;50.934;6.958;2023-11-18T05:51:08;32.67;;;20.67;;
3677;SDS011;1855;50.934;6.958;2023-11-18T05:53:38;31.90;;;21.20;;
3677;SDS011;1855;50.934;6.958;2023-11-18T05:56:06;33.10;;;20.45;;
3677;SDS011;1855;50.934;6.958;2023-11-18T05:58:34;31.33;;;19.58;;
3677;SDS011;1855;50.934;6.958;2023-11-18T06:01:00;31.90;;;20.40;;
3677;SDS011;1855;50.934;6.958;2023-11-18T06:03:27;30.98;;;20.67;;
3677;SDS011;1855;50.934;6.958;2023-11-18T06:05:55;29.63;;;19.57;;
3677;SDS011;1855;50.934;6.958;2023-11-18T06:08:22;28.20;;;19.40;;
3677;SDS011;1855;50.934;6.958;2023-11-18T06:10:49;30.83;;;20.50;;
3677;SDS011;1855;50.934;6.958;2023-11-18T06:13:17;30.50;;;20.10;;
3677;SDS011;1855;50.934;6.958;2023-11-18T06:15:43;28.58;;;19.23;;
3677;SDS011;1855;50.934;6.958;2023-11-18T06:18:10;28.98;;;19.40;;
3677;SDS011;1855;50.934;6.958;2023-11-18T06:20:37;30.25;;;20.55;;
3677;SDS011;1855;50.934;6.958;2023-11-18T06:23:05;28.67;;;19.80;;
3677;SDS011;1855;50.934;6.958;2023-11-18T06:25:32;28.77;;;18.67;;
3677;SDS011;1855;50.934;6.958;2023-11-18T06:28:00;28.58;;;20.30;;
3677;SDS011;1855;50.934;6.958;2023-11-18T06:30:27;30.60;;;19.70;;
3677;SDS011;1855;50.934;6.958;2023-11-18T06:32:54;29.48;;;18.20;;
3677;SDS011;1855;50.934;6.958;2023-11-18T06:35:20;29.15;;;19.65;;
3677;SDS011;1855;50.934;6.958;2023-11-18T06:37:47;27.38;;;18.60;;
3677;SDS011;1855;50.934;6.958;2023-11-18T06:40:15;27.92;;;18.60;;
3677;SDS011;1855;50.934;6.958;2023-11-18T06:42:43;29.70;;;19.42;;
3677;SDS011;1855;50.934;6.958;2023-11-18T06:45:12;25.27;;;18.05;;
3677;SDS011;1855;50.934;6.958;2023-11-18T06:47:40;26.48;;;18.35;;
3677;SDS011;1855;50.934;6.958;2023-11-18T06:50:09;27.73;;;18.10;;
3677;SDS011;1855;50.934;6.958;2023-11-18T06:52:39;28.13;;;18.73;;
3677;SDS011;1855;50.934;6.958;2023-11-18T06:55:06;28.85;;;18.17;;
3677;SDS011;1855;50.934;6.958;2023-11-18T06:57:35;24.20;;;17.17;;
3677;SDS011;1855;50.934;6.958;2023-11-18T07:00:02;29.52;;;19.73;;
3677;SDS011;1855;50.934;6.958;2023-11-18T07:02:33;25.73;;;18.38;;
3677;SDS011;1855;50.934;6.958;2023-11-18T07:05:00;24.70;;;17.40;;
3677;SDS011;1855;50.934;6.958;2023-11-18T07:07:27;26.77;;;18.17;;
3677;SDS011;1855;50.934;6.958;2023-11-18T07:09:54;26.25;;;17.77;;
3677;SDS011;1855;50.934;6.958;2023-11-18T07:12:21;24.98;;;17.40;;
3677;SDS011;1855;50.934;6.958;2023-11-18T07:14:49;24.58;;;17.15;;
3677;SDS011;1855;50.934;6.958;2023-11-18T07:17:15;22.58;;;16.00;;
3677;SDS011;1855;50.934;6.958;2023-11-18T07:19:44;22.50;;;15.77;;
3677;SDS011;1855;50.934;6.958;2023-11-18T07:22:11;23.67;;;16.80;;
3677;SDS011;1855;50.934;6.958;2023-11-18T07:24:37;22.30;;;15.60;;
3677;SDS011;1855;50.934;6.958;2023-11-18T07:27:04;21.40;;;15.88;;
3677;SDS011;1855;50.934;6.958;2023-11-18T07:29:31;22.10;;;16.10;;
3677;SDS011;1855;50.934;6.958;2023-11-18T07:31:59;22.35;;;16.45;;
3677;SDS011;1855;50.934;6.958;2023-11-18T07:34:30;20.30;;;14.88;;
3677;SDS011;1855;50.934;6.958;2023-11-18T07:36:57;20.85;;;15.68;;
3677;SDS011;1855;50.934;6.958;2023-11-18T07:39:24;22.05;;;15.43;;
3677;SDS011;1855;50.934;6.958;2023-11-18T07:42:08;19.80;;;15.07;;
3677;SDS011;1855;50.934;6.958;2023-11-18T07:44:36;18.20;;;15.00;;
3677;SDS011;1855;50.934;6.958;2023-11-18T07:47:05;21.42;;;14.93;;
3677;SDS011;1855;50.934;6.958;2023-11-18T07:49:32;19.88;;;14.35;;
3677;SDS011;1855;50.934;6.958;2023-11-18T07:52:00;18.95;;;14.30;;
3677;SDS011;1855;50.934;6.958;2023-11-18T07:54:27;16.73;;;13.57;;
3677;SDS011;1855;50.934;6.958;2023-11-18T07:56:54;20.42;;;14.38;;
3677;SDS011;1855;50.934;6.958;2023-11-18T07:59:21;16.90;;;13.82;;
3677;SDS011;1855;50.934;6.958;2023-11-18T08:01:49;18.13;;;14.15;;
3677;SDS011;1855;50.934;6.958;2023-11-18T08:04:17;17.45;;;13.80;;
3677;SDS011;1855;50.934;6.958;2023-11-18T08:06:45;18.15;;;13.85;;
3677;SDS011;1855;50.934;6.958;2023-11-18T08:09:13;19.30;;;14.30;;
3677;SDS011;1855;50.934;6.958;2023-11-18T08:11:39;16.42;;;13.23;;
3677;SDS011;1855;50.934;6.958;2023-11-18T08:14:07;16.25;;;13.18;;
3677;SDS011;1855;50.934;6.958;2023-11-18T08:16:34;16.83;;;13.13;;
3677;SDS011;1855;50.934;6.958;2023-11-18T08:19:01;18.15;;;12.68;;
3677;SDS011;1855;50.934;6.958;2023-11-18T08:21:29;18.20;;;12.80;;
3677;SDS011;1855;50.934;6.958;2023-11-18T08:23:56;15.52;;;12.43;;
3677;SDS011;1855;50.934;6.958;2023-11-18T08:26:25;15.73;;;11.85;;
3677;SDS011;1855;50.934;6.958;2023-11-18T08:28:51;17.98;;;12.65;;
3677;SDS011;1855;50.934;6.958;2023-11-18T08:31:18;16.77;;;12.17;;
3677;SDS011;1855;50.934;6.958;2023-11-18T08:33:46;15.63;;;12.45;;
3677;SDS011;1855;50.934;6.958;2023-11-18T08:36:12;15.32;;;12.45;;
3677;SDS011;1855;50.934;6.958;2023-11-18T08:38:40;17.08;;;12.70;;
3677;SDS011;1855;50.934;6.958;2023-11-18T08:41:09;14.10;;;11.70;;
3677;SDS011;1855;50.934;6.958;2023-11-18T08:43:36;15.63;;;12.30;;
3677;SDS011;1855;50.934;6.958;2023-11-18T08:46:06;15.25;;;12.10;;
3677;SDS011;1855;50.934;6.958;2023-11-18T08:48:33;15.50;;;12.05;;
3677;SDS011;1855;50.934;6.958;2023-11-18T08:50:59;16.00;;;11.90;;
3677;SDS011;1855;50.934;6.958;2023-11-18T08:53:26;15.10;;;11.98;;
3677;SDS011;1855;50.934;6.958;2023-11-18T08:55:54;14.45;;;11.52;;
3677;SDS011;1855;50.934;6.958;2023-11-18T08:58:21;14.80;;;12.52;;
3677;SDS011;1855;50.934;6.958;2023-11-18T09:00:52;14.88;;;12.70;;
3677;SDS011;1855;50.934;6.958;2023-11-18T09:03:21;13.00;;;11.60;;
3677;SDS011;1855;50.934;6.958;2023-11-18T09:05:53;14.02;;;11.05;;
3677;SDS011;1855;50.934;6.958;2023-11-18T09:08:24;17.10;;;12.40;;
3677;SDS011;1855;50.934;6.958;2023-11-18T09:10:52;15.80;;;12.10;;
3677;SDS011;1855;50.934;6.958;2023-11-18T09:13:20;15.43;;;11.77;;
3677;SDS011;1855;50.934;6.958;2023-11-18T09:15:48;12.00;;;10.40;;
3677;SDS011;1855;50.934;6.958;2023-11-18T09:18:15;13.45;;;11.52;;
3677;SDS011;1855;50.934;6.958;2023-11-18T09:20:43;13.13;;;11.40;;
3677;SDS011;1855;50.934;6.958;2023-11-18T09:23:10;13.23;;;11.00;;
3677;SDS011;1855;50.934;6.958;2023-11-18T09:25:38;12.75;;;11.40;;
3677;SDS011;1855;50.934;6.958;2023-11-18T09:28:06;12.77;;;10.90;;
3677;SDS011;1855;50.934;6.958;2023-11-18T09:30:36;12.55;;;10.68;;
3677;SDS011;1855;50.934;6.958;2023-11-18T09:33:12;12.20;;;10.90;;
3677;SDS011;1855;50.934;6.958;2023-11-18T09:35:39;14.13;;;10.73;;
3677;SDS011;1855;50.934;6.958;2023-11-18T09:38:06;13.75;;;10.70;;
3677;SDS011;1855;50.934;6.958;2023-11-18T09:40:33;13.35;;;10.75;;
3677;SDS011;1855;50.934;6.958;2023-11-18T09:43:08;12.10;;;10.65;;
3677;SDS011;1855;50.934;6.958;2023-11-18T09:45:37;12.25;;;10.90;;
3677;SDS011;1855;50.934;6.958;2023-11-18T09:48:04;15.18;;;11.60;;
3677;SDS011;1855;50.934;6.958;2023-11-18T09:50:34;14.10;;;11.80;;
3677;SDS011;1855;50.934;6.958;2023-11-18T09:53:03;13.20;;;10.77;;
3677;SDS011;1855;50.934;6.958;2023-11-18T09:55:38;11.82;;;10.50;;
3677;SDS011;1855;50.934;6.958;2023-11-18T09:58:13;12.50;;;10.65;;
3677;SDS011;1855;50.934;6.958;2023-11-18T10:00:43;12.80;;;10.20;;
3677;SDS011;1855;50.934;6.958;2023-11-18T10:03:16;11.95;;;9.73;;
3677;SDS011;1855;50.934;6.958;2023-11-18T10:05:42;11.45;;;10.25;;
3677;SDS011;1855;50.934;6.958;2023-11-18T10:08:09;11.88;;;10.18;;
3677;SDS011;1855;50.934;6.958;2023-11-18T10:10:36;11.77;;;10.32;;
3677;SDS011;1855;50.934;6.958;2023-11-18T10:13:03;10.98;;;9.85;;
3677;SDS011;1855;50.934;6.958;2023-11-18T10:15:33;10.93;;;9.70;;
3677;SDS011;1855;50.934;6.958;2023-11-18T10:18:02;11.70;;;10.05;;
3677;SDS011;1855;50.934;6.958;2023-11-18T10:20:45;11.15;;;9.70;;
3677;SDS011;1855;50.934;6.958;2023-11-18T10:23:13;10.90;;;9.80;;
3677;SDS011;1855;50.934;6.958;2023-11-18T10:25:45;11.13;;;9.97;;
3677;SDS011;1855;50.934;6.958;2023-11-18T10:28:20;10.63;;;9.52;;
3677;SDS011;1855;50.934;6.958;2023-11-18T10:30:48;10.90;;;9.80;;
3677;SDS011;1855;50.934;6.958;2023-11-18T10:33:17;10.95;;;9.85;;
3677;SDS011;1855;50.934;6.958;2023-11-18T10:35:50;10.30;;;9.20;;
3677;SDS011;1855;50.934;6.958;2023-11-18T10:38:20;10.80;;;9.70;;
3677;SDS011;1855;50.934;6.958;2023-11-18T10:40:50;10.00;;;8.82;;
3677;SDS011;1855;50.934;6.958;2023-11-18T10:43:20;17.60;;;12.10;;
3677;SDS011;1855;50.934;6.958;2023-11-18T10:45:50;10.52;;;9.30;;
3677;SDS011;1855;50.934;6.958;2023-11-18T10:48:19;10.05;;;9.05;;
3677;SDS011;1855;50.934;6.958;2023-11-18T10:50:46;11.00;;;9.90;;
3677;SDS011;1855;50.934;6.958;2023-11-18T10:53:15;9.60;;;8.70;;
3677;SDS011;1855;50.934;6.958;2023-11-18T10:55:42;9.70;;;8.70;;
3677;SDS011;1855;50.934;6.958;2023-11-18T10:58:09;10.35;;;9.35;;
3677;SDS011;1855;50.934;6.958;2023-11-18T11:00:45;9.68;;;8.77;;
3677;SDS011;1855;50.934;6.958;2023-11-18T11:03:14;10.30;;;9.40;;
3677;SDS011;1855;50.934;6.958;2023-11-18T11:05:43;9.20;;;8.30;;
3677;SDS011;1855;50.934;6.958;2023-11-18T11:08:10;10.05;;;8.77;;
3677;SDS011;1855;50.934;6.958;2023-11-18T11:10:41;10.10;;;9.10;;
3677;SDS011;1855;50.934;6.958;2023-11-18T11:13:08;10.52;;;9.05;;
3677;SDS011;1855;50.934;6.958;2023-11-18T11:15:39;9.10;;;8.20;;
3677;SDS011;1855;50.934;6.958;2023-11-18T11:18:10;8.10;;;7.30;;
3677;SDS011;1855;50.934;6.958;2023-11-18T11:20:47;8.85;;;7.95;;
3677;SDS011;1855;50.934;6.958;2023-11-18T11:23:27;8.77;;;7.87;;
3677;SDS011;1855;50.934;6.958;2023-11-18T11:26:06;8.60;;;7.45;;
3677;SDS011;1855;50.934;6.958;2023-11-18T11:28:40;9.93;;;7.60;;
3677;SDS011;1855;50.934;6.958;2023-11-18T11:31:12;10.05;;;8.50;;
3677;SDS011;1855;50.934;6.958;2023-11-18T11:33:49;9.38;;;8.57;;
3677;SDS011;1855;50.934;6.958;2023-11-18T11:36:25;10.23;;;8.50;;
3677;SDS011;1855;50.934;6.958;2023-11-18T11:38:58;9.48;;;8.50;;
3677;SDS011;1855;50.934;6.958;2023-11-18T11:41:26;9.52;;;8.52;;
3677;SDS011;1855;50.934;6.958;2023-11-18T11:43:54;9.60;;;8.60;;
3677;SDS011;1855;50.934;6.958;2023-11-18T11:46:23;9.20;;;8.30;;
3677;SDS011;1855;50.934;6.958;2023-11-18T11:48:57;8.82;;;8.00;;
3677;SDS011;1855;50.934;6.958;2023-11-18T11:51:28;9.00;;;7.80;;
3677;SDS011;1855;50.934;6.958;2023-11-18T11:54:04;10.48;;;8.55;;
3677;SDS011;1855;50.934;6.958;2023-11-18T11:56:41;9.40;;;8.50;;
3677;SDS011;1855;50.934;6.958;2023-11-18T11:59:09;9.27;;;8.37;;
3677;SDS011;1855;50.934;6.958;2023-11-18T12:01:36;8.65;;;7.75;;
3677;SDS011;1855;50.934;6.958;2023-11-18T12:04:04;9.45;;;7.97;;
3677;SDS011;1855;50.934;6.958;2023-11-18T12:06:37;9.15;;;8.25;;
3677;SDS011;1855;50.934;6.958;2023-11-18T12:09:09;9.52;;;8.52;;
3677;SDS011;1855;50.934;6.958;2023-11-18T12:11:37;9.65;;;7.60;;
3677;SDS011;1855;50.934;6.958;2023-11-18T12:14:07;9.57;;;8.05;;
3677;SDS011;1855;50.934;6.958;2023-11-18T12:16:58;8.73;;;7.82;;
3677;SDS011;1855;50.934;6.958;2023-11-18T12:19:32;9.03;;;7.40;;
3677;SDS011;1855;50.934;6.958;2023-11-18T12:22:11;8.73;;;7.70;;
3677;SDS011;1855;50.934;6.958;2023-11-18T12:28:11;8.70;;;7.80;;
3677;SDS011;1855;50.934;6.958;2023-11-18T12:30:41;9.10;;;7.93;;
3677;SDS011;1855;50.934;6.958;2023-11-18T12:33:17;10.98;;;8.10;;
3677;SDS011;1855;50.934;6.958;2023-11-18T12:39:11;9.05;;;8.15;;
3677;SDS011;1855;50.934;6.958;2023-11-18T12:42:09;9.23;;;7.40;;
3677;SDS011;1855;50.934;6.958;2023-11-18T12:44:45;9.00;;;7.78;;
3677;SDS011;1855;50.934;6.958;2023-11-18T12:47:27;10.25;;;8.10;;
3677;SDS011;1855;50.934;6.958;2023-11-18T12:49:57;8.45;;;7.30;;
3677;SDS011;1855;50.934;6.958;2023-11-18T12:52:25;9.10;;;7.57;;
3677;SDS011;1855;50.934;6.958;2023-11-18T12:54:54;10.02;;;7.63;;
3677;SDS011;1855;50.934;6.958;2023-11-18T12:57:26;9.47;;;6.80;;
3677;SDS011;1855;50.934;6.958;2023-11-18T12:59:56;8.63;;;7.72;;
3677;SDS011;1855;50.934;6.958;2023-11-18T13:02:23;8.60;;;7.30;;
3677;SDS011;1855;50.934;6.958;2023-11-18T13:04:50;10.45;;;7.10;;
3677;SDS011;1855;50.934;6.958;2023-11-18T13:07:18;7.70;;;6.63;;
3677;SDS011;1855;50.934;6.958;2023-11-18T13:09:46;9.03;;;6.80;;
3677;SDS011;1855;50.934;6.958;2023-11-18T13:12:14;10.02;;;7.10;;
3677;SDS011;1855;50.934;6.958;2023-11-18T13:14:44;8.30;;;6.78;;
3677;SDS011;1855;50.934;6.958;2023-11-18T13:17:11;7.10;;;6.40;;
3677;SDS011;1855;50.934;6.958;2023-11-18T13:19:40;7.80;;;6.18;;
3677;SDS011;1855;50.934;6.958;2023-11-18T13:22:09;7.65;;;6.75;;
3677;SDS011;1855;50.934;6.958;2023-11-18T13:24:37;7.20;;;6.50;;
3677;SDS011;1855;50.934;6.958;2023-11-18T13:27:05;7.25;;;6.00;;
3677;SDS011;1855;50.934;6.958;2023-11-18T13:29:36;7.90;;;6.20;;
3677;SDS011;1855;50.934;6.958;2023-11-18T13:32:05;8.23;;;5.88;;
3677;SDS011;1855;50.934;6.958;2023-11-18T13:34:33;8.30;;;6.20;;
3677;SDS011;1855;50.934;6.958;2023-11-18T13:37:02;7.40;;;6.03;;
3677;SDS011;1855;50.934;6.958;2023-11-18T13:39:31;7.22;;;6.32;;
3677;SDS011;1855;50.934;6.958;2023-11-18T13:41:58;6.55;;;5.95;;
3677;SDS011;1855;50.934;6.958;2023-11-18T13:44:45;8.53;;;6.43;;
3677;SDS011;1855;50.934;6.958;2023-11-18T13:47:13;6.20;;;5.05;;
3677;SDS011;1855;50.934;6.958;2023-11-18T13:49:42;8.38;;;5.38;;
3677;SDS011;1855;50.934;6.958;2023-11-18T13:52:10;7.80;;;5.30;;
3677;SDS011;1855;50.934;6.958;2023-11-18T13:54:42;6.50;;;4.82;;
3677;SDS011;1855;50.934;6.958;2023-11-18T13:57:10;6.90;;;4.47;;
3677;SDS011;1855;50.934;6.958;2023-11-18T13:59:37;6.47;;;4.82;;
3677;SDS011;1855;50.934;6.958;2023-11-18T14:02:06;6.25;;;4.70;;
3677;SDS011;1855;50.934;6.958;2023-11-18T14:04:33;7.90;;;4.57;;
3677;SDS011;1855;50.934;6.958;2023-11-18T14:07:01;4.88;;;4.38;;
3677;SDS011;1855;50.934;6.958;2023-11-18T14:09:30;5.50;;;4.40;;
3677;SDS011;1855;50.934;6.958;2023-11-18T14:12:01;4.78;;;4.20;;
3677;SDS011;1855;50.934;6.958;2023-11-18T14:14:31;6.88;;;4.10;;
3677;SDS011;1855;50.934;6.958;2023-11-18T14:16:58;6.35;;;4.32;;
3677;SDS011;1855;50.934;6.958;2023-11-18T14:19:26;4.60;;;3.70;;
3677;SDS011;1855;50.934;6.958;2023-11-18T14:21:53;4.43;;;3.72;;
3677;SDS011;1855;50.934;6.958;2023-11-18T14:24:21;5.57;;;4.60;;
3677;SDS011;1855;50.934;6.958;2023-11-18T14:26:48;6.32;;;4.65;;
3677;SDS011;1855;50.934;6.958;2023-11-18T14:29:15;5.35;;;3.90;;
3677;SDS011;1855;50.934;6.958;2023-11-18T14:31:43;7.90;;;5.30;;
3677;SDS011;1855;50.934;6.958;2023-11-18T14:34:11;6.03;;;3.95;;
3677;SDS011;1855;50.934;6.958;2023-11-18T14:36:40;5.90;;;3.90;;
3677;SDS011;1855;50.934;6.958;2023-11-18T14:39:08;5.40;;;4.25;;
3677;SDS011;1855;50.934;6.958;2023-11-18T14:41:37;8.20;;;4.90;;
3677;SDS011;1855;50.934;6.958;2023-11-18T14:44:04;6.30;;;4.90;;
3677;SDS011;1855;50.934;6.958;2023-11-18T14:46:31;5.78;;;4.85;;
3677;SDS011;1855;50.934;6.958;2023-11-18T14:48:58;8.67;;;5.40;;
3677;SDS011;1855;50.934;6.958;2023-11-18T14:51:25;5.47;;;4.97;;
3677;SDS011;1855;50.934;6.958;2023-11-18T14:53:53;7.88;;;5.30;;
3677;SDS011;1855;50.934;6.958;2023-11-18T14:56:20;9.50;;;4.90;;
3677;SDS011;1855;50.934;6.958;2023-11-18T14:58:46;8.02;;;4.95;;
3677;SDS011;1855;50.934;6.958;2023-11-18T15:01:14;6.80;;;5.30;;
3677;SDS011;1855;50.934;6.958;2023-11-18T15:03:43;5.88;;;5.20;;
3677;SDS011;1855;50.934;6.958;2023-11-18T15:06:10;7.57;;;5.78;;
3677;SDS011;1855;50.934;6.958;2023-11-18T15:08:37;7.38;;;5.70;;
3677;SDS011;1855;50.934;6.958;2023-11-18T15:11:06;7.57;;;5.75;;